MVC1010 SCDA-SCEL
Flight info
| Callsign | MVC1010 |
|---|---|
| Flight time | N/A |
| Altitude | 35000 |
| Route | ENLUS5B ENLUS UQ803 SIMOK SIMOK7B |
| Aircraft | A320/M-SDE3FGHIRWY/LB1 |
Departure
| Time | 2026-04-29 20:28 |
|---|---|
| Airport | Diego Aracena International Airport (SCDA) |
Arrival
| Time | N/A |
|---|---|
| Airport | Comodoro Arturo Merino Benítez International Airport (SCEL) |
| Time | Latitude | Longitude | Altitude | Speed | Heading |
|---|---|---|---|---|---|
| 2026-04-29 20:24 | -20.54665 | -70.18024 | 174 ft | 0 kts | 78° |
| 2026-04-29 20:24 | -20.54665 | -70.18023 | 174 ft | 2 kts | 76° |
| 2026-04-29 20:24 | -20.54605 | -70.18007 | 174 ft | 16 kts | 351° |
| 2026-04-29 20:24 | -20.54478 | -70.18077 | 175 ft | 25 kts | 328° |
| 2026-04-29 20:25 | -20.54303 | -70.18148 | 176 ft | 29 kts | 360° |
| 2026-04-29 20:25 | -20.54099 | -70.18153 | 174 ft | 30 kts | 359° |
| 2026-04-29 20:25 | -20.53890 | -70.18152 | 175 ft | 30 kts | 5° |
| 2026-04-29 20:25 | -20.53676 | -70.18133 | 173 ft | 31 kts | 4° |
| 2026-04-29 20:26 | -20.53459 | -70.18123 | 175 ft | 31 kts | 2° |
| 2026-04-29 20:26 | -20.53241 | -70.18113 | 174 ft | 32 kts | 2° |
| 2026-04-29 20:26 | -20.53025 | -70.18086 | 176 ft | 29 kts | 18° |
| 2026-04-29 20:26 | -20.52843 | -70.18070 | 175 ft | 10 kts | 310° |
| 2026-04-29 20:27 | -20.52848 | -70.18084 | 175 ft | 0 kts | 181° |
| 2026-04-29 20:27 | -20.52849 | -70.18084 | 175 ft | 1 kts | 181° |
| 2026-04-29 20:27 | -20.52853 | -70.18084 | 175 ft | 0 kts | 181° |
| 2026-04-29 20:27 | -20.53004 | -70.18099 | 176 ft | 51 kts | 184° |
| 2026-04-29 20:28 | -20.53613 | -70.18133 | 174 ft | 120 kts | 183° |
| 2026-04-29 20:28 | -20.54609 | -70.18206 | 271 ft | 161 kts | 186° |
| 2026-04-29 20:28 | -20.55752 | -70.18287 | 886 ft | 171 kts | 185° |
| 2026-04-29 20:28 | -20.56961 | -70.18354 | 1521 ft | 179 kts | 185° |
| 2026-04-29 20:29 | -20.58275 | -70.18419 | 1983 ft | 197 kts | 184° |
| 2026-04-29 20:29 | -20.59720 | -70.18490 | 2171 ft | 217 kts | 183° |
| 2026-04-29 20:29 | -20.61310 | -70.18568 | 2380 ft | 241 kts | 183° |
| 2026-04-29 20:29 | -20.63055 | -70.18653 | 2816 ft | 257 kts | 183° |
| 2026-04-29 20:30 | -20.64866 | -70.18742 | 3492 ft | 264 kts | 183° |
| 2026-04-29 20:30 | -20.66716 | -70.18837 | 4190 ft | 269 kts | 183° |
| 2026-04-29 20:30 | -20.68603 | -70.18917 | 4874 ft | 274 kts | 182° |
| 2026-04-29 20:30 | -20.70525 | -70.18973 | 5515 ft | 278 kts | 181° |
| 2026-04-29 20:31 | -20.72443 | -70.19019 | 6148 ft | 281 kts | 181° |
| 2026-04-29 20:31 | -20.74411 | -70.19061 | 6744 ft | 284 kts | 181° |
| 2026-04-29 20:31 | -20.76399 | -70.19104 | 7325 ft | 287 kts | 181° |
| 2026-04-29 20:31 | -20.78411 | -70.19152 | 7915 ft | 291 kts | 182° |
| 2026-04-29 20:32 | -20.80445 | -70.19203 | 8493 ft | 294 kts | 182° |
| 2026-04-29 20:32 | -20.82501 | -70.19258 | 9075 ft | 297 kts | 182° |
| 2026-04-29 20:32 | -20.84581 | -70.19315 | 9643 ft | 300 kts | 182° |
| 2026-04-29 20:32 | -20.85966 | -70.19353 | 10002 ft | 302 kts | 182° |
| 2026-04-29 20:33 | -20.88798 | -70.19429 | 10602 ft | 311 kts | 182° |
| 2026-04-29 20:33 | -20.91021 | -70.19490 | 10716 ft | 329 kts | 182° |
| 2026-04-29 20:33 | -20.93368 | -70.19555 | 10840 ft | 345 kts | 182° |
| 2026-04-29 20:33 | -20.95821 | -70.19621 | 11016 ft | 358 kts | 182° |
| 2026-04-29 20:34 | -20.98335 | -70.19687 | 11406 ft | 364 kts | 182° |
| 2026-04-29 20:34 | -21.00875 | -70.19751 | 11868 ft | 366 kts | 182° |
| 2026-04-29 20:34 | -21.03399 | -70.19815 | 12326 ft | 369 kts | 182° |
| 2026-04-29 20:34 | -21.05973 | -70.19882 | 12787 ft | 372 kts | 182° |
| 2026-04-29 20:35 | -21.08568 | -70.19952 | 13251 ft | 374 kts | 182° |
| 2026-04-29 20:35 | -21.11143 | -70.20021 | 13695 ft | 377 kts | 182° |
| 2026-04-29 20:35 | -21.13775 | -70.20089 | 14109 ft | 379 kts | 182° |
| 2026-04-29 20:35 | -21.16423 | -70.20159 | 14519 ft | 382 kts | 182° |
| 2026-04-29 20:36 | -21.19082 | -70.20232 | 14925 ft | 384 kts | 182° |
| 2026-04-29 20:36 | -21.21768 | -70.20307 | 15327 ft | 387 kts | 181° |
| 2026-04-29 20:36 | -21.24467 | -70.20378 | 15733 ft | 389 kts | 181° |
| 2026-04-29 20:36 | -21.27181 | -70.20448 | 16129 ft | 391 kts | 181° |
| 2026-04-29 20:37 | -21.29907 | -70.20521 | 16529 ft | 394 kts | 181° |
| 2026-04-29 20:37 | -21.32655 | -70.20594 | 16926 ft | 396 kts | 181° |
| 2026-04-29 20:37 | -21.35422 | -70.20668 | 17318 ft | 398 kts | 181° |
| 2026-04-29 20:37 | -21.38165 | -70.20742 | 17718 ft | 401 kts | 181° |
| 2026-04-29 20:38 | -21.40962 | -70.20818 | 18110 ft | 403 kts | 181° |
| 2026-04-29 20:38 | -21.43778 | -70.20894 | 18471 ft | 406 kts | 181° |
| 2026-04-29 20:38 | -21.46612 | -70.20971 | 18814 ft | 408 kts | 181° |
| 2026-04-29 20:38 | -21.49456 | -70.21047 | 19156 ft | 410 kts | 181° |
| 2026-04-29 20:39 | -21.52319 | -70.21121 | 19502 ft | 413 kts | 182° |
| 2026-04-29 20:39 | -21.55197 | -70.21197 | 19842 ft | 415 kts | 182° |
| 2026-04-29 20:39 | -21.58091 | -70.21276 | 20185 ft | 417 kts | 182° |
| 2026-04-29 20:39 | -21.60999 | -70.21354 | 20530 ft | 419 kts | 182° |
| 2026-04-29 20:40 | -21.63924 | -70.21433 | 20873 ft | 422 kts | 182° |
| 2026-04-29 20:40 | -21.66872 | -70.21512 | 21212 ft | 424 kts | 182° |
| 2026-04-29 20:40 | -21.69829 | -70.21593 | 21538 ft | 426 kts | 182° |
| 2026-04-29 20:40 | -21.72801 | -70.21674 | 21863 ft | 428 kts | 182° |
| 2026-04-29 20:41 | -21.75751 | -70.21752 | 22173 ft | 431 kts | 182° |
| 2026-04-29 20:41 | -21.78754 | -70.21830 | 22484 ft | 433 kts | 182° |
| 2026-04-29 20:41 | -21.81710 | -70.21908 | 22782 ft | 435 kts | 182° |
| 2026-04-29 20:41 | -21.84742 | -70.21990 | 23090 ft | 437 kts | 183° |
| 2026-04-29 20:42 | -21.87798 | -70.22071 | 23395 ft | 440 kts | 183° |
| 2026-04-29 20:42 | -21.90844 | -70.22338 | 23655 ft | 440 kts | 190° |
| 2026-04-29 20:42 | -21.93883 | -70.22810 | 23923 ft | 442 kts | 190° |
| 2026-04-29 20:42 | -21.96932 | -70.23287 | 24180 ft | 444 kts | 190° |
| 2026-04-29 20:43 | -21.99992 | -70.23768 | 24446 ft | 445 kts | 190° |
| 2026-04-29 20:43 | -22.03063 | -70.24253 | 24719 ft | 446 kts | 190° |
| 2026-04-29 20:43 | -22.06140 | -70.24743 | 24989 ft | 448 kts | 190° |
| 2026-04-29 20:43 | -22.09228 | -70.25237 | 25264 ft | 449 kts | 190° |
| 2026-04-29 20:44 | -22.12326 | -70.25727 | 25538 ft | 451 kts | 190° |
| 2026-04-29 20:44 | -22.15433 | -70.26215 | 25801 ft | 452 kts | 190° |
| 2026-04-29 20:44 | -22.18553 | -70.26706 | 26063 ft | 454 kts | 190° |
| 2026-04-29 20:44 | -22.21688 | -70.27199 | 26344 ft | 455 kts | 191° |
| 2026-04-29 20:45 | -22.24827 | -70.27692 | 26621 ft | 457 kts | 191° |
| 2026-04-29 20:45 | -22.27977 | -70.28184 | 26901 ft | 458 kts | 191° |
| 2026-04-29 20:45 | -22.31094 | -70.28674 | 27182 ft | 460 kts | 191° |
| 2026-04-29 20:45 | -22.34254 | -70.29174 | 27544 ft | 459 kts | 191° |
| 2026-04-29 20:46 | -22.37410 | -70.29673 | 27964 ft | 457 kts | 191° |
| 2026-04-29 20:46 | -22.40558 | -70.30170 | 28383 ft | 456 kts | 191° |
| 2026-04-29 20:46 | -22.43692 | -70.30667 | 28791 ft | 455 kts | 191° |
| 2026-04-29 20:46 | -22.46821 | -70.31163 | 29213 ft | 453 kts | 191° |
| 2026-04-29 20:47 | -22.49934 | -70.31658 | 29616 ft | 452 kts | 191° |
| 2026-04-29 20:47 | -22.52997 | -70.32144 | 30032 ft | 450 kts | 191° |
| 2026-04-29 20:47 | -22.56093 | -70.32634 | 30391 ft | 449 kts | 191° |
| 2026-04-29 20:47 | -22.58139 | -70.32957 | 30615 ft | 448 kts | 192° |
| 2026-04-29 20:48 | -22.62264 | -70.33606 | 31071 ft | 447 kts | 192° |
| 2026-04-29 20:48 | -22.65339 | -70.34090 | 31409 ft | 446 kts | 192° |
| 2026-04-29 20:48 | -22.68403 | -70.34573 | 31744 ft | 445 kts | 192° |
| 2026-04-29 20:48 | -22.71466 | -70.35058 | 32073 ft | 444 kts | 192° |
| 2026-04-29 20:49 | -22.74482 | -70.35539 | 32400 ft | 443 kts | 192° |
| 2026-04-29 20:49 | -22.77529 | -70.36024 | 32728 ft | 443 kts | 193° |
| 2026-04-29 20:49 | -22.80572 | -70.36510 | 33078 ft | 442 kts | 193° |
| 2026-04-29 20:49 | -22.83611 | -70.36995 | 33404 ft | 441 kts | 193° |
| 2026-04-29 20:50 | -22.86646 | -70.37479 | 33721 ft | 440 kts | 193° |
| 2026-04-29 20:50 | -22.89703 | -70.37793 | 34008 ft | 444 kts | 185° |
| 2026-04-29 20:50 | -22.92795 | -70.37813 | 34239 ft | 444 kts | 185° |
| 2026-04-29 20:50 | -22.95887 | -70.37831 | 34442 ft | 445 kts | 185° |
| 2026-04-29 20:51 | -22.98981 | -70.37851 | 34637 ft | 445 kts | 185° |
| 2026-04-29 20:51 | -23.02082 | -70.37874 | 34825 ft | 446 kts | 186° |
| 2026-04-29 20:51 | -23.05187 | -70.37900 | 34939 ft | 447 kts | 186° |
| 2026-04-29 20:51 | -23.08318 | -70.37929 | 34963 ft | 453 kts | 186° |
| 2026-04-29 20:52 | -23.14495 | -70.37984 | 34960 ft | 458 kts | 185° |
| 2026-04-29 20:52 | -23.20832 | -70.38028 | 34957 ft | 459 kts | 185° |
| 2026-04-29 20:53 | -23.23684 | -70.38045 | 34957 ft | 459 kts | 185° |